Time;durP1;ratioP1;P1;durP2;ratioP2;P2;SDS_P1;SDS_P2;PMS_P1;PMS_P2;Temp;Humidity;BMP_temperature;BMP_pressure;BME280_temperature;BME280_humidity;BME280_pressure;Samples;Min_cycle;Max_cycle;Signal;HPM_P1;HPM_P2
2023/06/21 00:00:45;;;;;;;10.52;7.28;;;;;;;22.62;60.41;99679.63;4406752;32;20146;-87
2023/06/21 00:03:11;;;;;;;8.95;7.07;;;;;;;22.61;60.42;99683.25;4400988;32;28624;-87
2023/06/21 00:05:38;;;;;;;10.50;7.45;;;;;;;22.55;60.41;99674.00;4418474;32;20400;-87
2023/06/21 00:08:04;;;;;;;12.48;8.25;;;;;;;22.71;60.42;99668.22;4389498;32;20102;-87
2023/06/21 00:10:30;;;;;;;12.63;8.00;;;;;;;22.56;60.42;99666.88;4423148;32;20105;-86
2023/06/21 00:12:55;;;;;;;12.48;8.00;;;;;;;22.44;60.40;99670.53;4406972;32;20134;-87
2023/06/21 00:15:21;;;;;;;11.75;7.32;;;;;;;22.72;60.42;99674.41;4409244;32;20114;-87
2023/06/21 00:17:46;;;;;;;10.45;7.82;;;;;;;22.51;60.41;99666.41;4407028;32;20140;-87
2023/06/21 00:20:12;;;;;;;11.12;8.05;;;;;;;22.51;60.41;99674.38;4394022;32;20114;-87
2023/06/21 00:22:38;;;;;;;10.05;7.57;;;;;;;22.59;60.42;99671.91;4376026;32;20086;-87
2023/06/21 00:25:04;;;;;;;8.45;7.15;;;;;;;22.57;60.41;99666.75;4393422;32;20117;-87
2023/06/21 00:27:29;;;;;;;9.80;7.28;;;;;;;22.49;60.42;99660.41;4401173;32;20402;-87
2023/06/21 00:29:55;;;;;;;10.60;7.80;;;;;;;22.30;60.39;99663.72;4408719;32;20134;-87
2023/06/21 00:32:20;;;;;;;11.23;7.68;;;;;;;22.48;60.42;99659.56;4406367;32;24543;-88
2023/06/21 00:34:47;;;;;;;10.43;7.43;;;;;;;22.33;60.40;99661.66;4405529;32;20165;-87
2023/06/21 00:37:13;;;;;;;9.77;7.72;;;;;;;22.33;60.41;99666.09;4397438;32;20098;-86
2023/06/21 00:39:38;;;;;;;10.27;7.50;;;;;;;22.35;60.41;99665.00;4394124;32;20086;-87
2023/06/21 00:42:05;;;;;;;11.20;7.82;;;;;;;22.41;60.41;99662.81;4417209;32;20168;-87
2023/06/21 00:44:31;;;;;;;10.90;7.75;;;;;;;22.53;60.41;99667.13;4393639;32;20129;-87
2023/06/21 00:46:56;;;;;;;10.05;7.57;;;;;;;22.40;60.40;99669.09;4403109;32;20094;-87
2023/06/21 00:49:23;;;;;;;14.40;7.62;;;;;;;22.43;60.41;99677.62;4423136;32;20181;-87
2023/06/21 00:51:48;;;;;;;10.20;7.20;;;;;;;22.42;60.41;99677.75;4407024;32;20101;-87
2023/06/21 00:54:16;;;;;;;9.23;7.18;;;;;;;22.47;60.40;99680.87;4408021;32;20152;-87
2023/06/21 00:56:43;;;;;;;8.90;6.87;;;;;;;22.39;60.40;99673.56;4394619;32;20094;-87
2023/06/21 00:59:09;;;;;;;10.35;7.00;;;;;;;22.49;60.41;99676.31;4380668;32;20093;-87
2023/06/21 01:01:36;;;;;;;15.23;8.00;;;;;;;22.46;60.40;99676.53;4413262;32;20109;-87
2023/06/21 01:04:02;;;;;;;9.32;6.80;;;;;;;22.40;60.40;99682.34;4393110;32;20148;-87
2023/06/21 01:06:31;;;;;;;9.73;6.90;;;;;;;22.43;60.40;99671.50;4400561;32;20466;-87
2023/06/21 01:09:06;;;;;;;10.32;7.12;;;;;;;22.48;60.40;99666.69;4405905;32;20110;-87
2023/06/21 01:11:58;;;;;;;9.55;7.35;;;;;;;22.53;60.41;99661.81;4404506;32;20375;-87
2023/06/21 01:14:48;;;;;;;9.27;7.50;;;;;;;22.32;60.39;99670.56;4396565;32;20114;-87
2023/06/21 01:17:14;;;;;;;11.43;7.90;;;;;;;22.39;60.40;99678.03;4399490;32;20485;-87
2023/06/21 01:19:47;;;;;;;8.27;6.85;;;;;;;22.30;60.40;99677.81;4395003;32;20116;-87
2023/06/21 01:22:24;;;;;;;11.57;7.15;;;;;;;22.32;60.39;99678.53;4394585;32;20121;-87
2023/06/21 01:25:17;;;;;;;9.85;7.53;;;;;;;22.28;60.39;99671.78;4420071;32;20105;-87
2023/06/21 01:27:53;;;;;;;10.88;6.82;;;;;;;22.40;60.40;99682.34;4422984;32;20082;-87
2023/06/21 01:30:19;;;;;;;9.00;7.20;;;;;;;22.07;60.38;99680.66;4381953;32;20569;-87
2023/06/21 01:32:44;;;;;;;10.93;6.82;;;;;;;22.11;60.39;99680.28;4403962;32;20094;-87
2023/06/21 01:35:09;;;;;;;12.27;7.03;;;;;;;22.10;60.39;99673.28;4372989;32;20235;-86
2023/06/21 01:37:35;;;;;;;9.43;7.05;;;;;;;22.04;60.39;99668.50;4395200;32;23439;-86
2023/06/21 01:40:00;;;;;;;9.75;6.45;;;;;;;21.92;60.37;99662.31;4406751;32;20146;-87
2023/06/21 01:42:26;;;;;;;12.15;6.87;;;;;;;21.82;60.38;99657.87;4404557;32;20356;-87
2023/06/21 01:44:51;;;;;;;10.07;6.47;;;;;;;21.70;60.36;99663.19;4423094;32;20081;-87
2023/06/21 01:47:17;;;;;;;8.60;6.95;;;;;;;21.86;60.38;99664.63;4395312;32;20462;-87
2023/06/21 01:49:42;;;;;;;11.35;7.50;;;;;;;21.82;60.37;99669.34;4393809;32;20440;-87
2023/06/21 01:52:08;;;;;;;11.23;7.35;;;;;;;21.93;60.37;99665.81;4405083;32;20121;-87
2023/06/21 01:54:34;;;;;;;10.77;7.22;;;;;;;21.84;60.37;99675.34;4396381;32;20530;-87
2023/06/21 01:56:59;;;;;;;8.40;6.10;;;;;;;21.93;60.37;99679.06;4399191;32;20082;-87
2023/06/21 01:59:25;;;;;;;8.23;6.62;;;;;;;21.88;60.38;99678.59;4394044;32;20148;-87
2023/06/21 02:01:50;;;;;;;10.07;7.25;;;;;;;21.84;60.37;99691.25;4380399;32;20481;-87
2023/06/21 02:04:16;;;;;;;9.95;6.85;;;;;;;21.76;60.37;99680.41;4392809;32;35088;-87
2023/06/21 02:06:41;;;;;;;8.10;6.55;;;;;;;21.85;60.37;99684.12;4392227;32;20090;-87
2023/06/21 02:09:09;;;;;;;10.23;6.20;;;;;;;21.83;60.37;99686.06;4393632;32;20112;-87
2023/06/21 02:11:34;;;;;;;10.52;6.78;;;;;;;21.83;60.37;99689.56;4404721;32;20094;-87
2023/06/21 02:14:00;;;;;;;8.38;6.62;;;;;;;21.82;60.37;99687.87;4381292;32;20120;-87
2023/06/21 02:16:29;;;;;;;11.70;6.53;;;;;;;21.83;60.38;99689.56;4405435;32;20153;-87
2023/06/21 02:18:55;;;;;;;10.30;6.22;;;;;;;21.94;60.37;99691.34;4422882;32;20136;-86
2023/06/21 02:21:20;;;;;;;10.15;6.93;;;;;;;21.93;60.37;99692.31;4394998;32;20114;-87
2023/06/21 02:23:46;;;;;;;10.43;6.30;;;;;;;21.92;60.37;99687.97;4383348;32;20155;-87
2023/06/21 02:26:11;;;;;;;8.70;6.45;;;;;;;21.91;60.38;99691.59;4394875;32;20097;-87
2023/06/21 02:28:37;;;;;;;8.35;6.50;;;;;;;21.96;60.39;99690.25;4408775;32;20477;-87
2023/06/21 02:31:02;;;;;;;9.70;6.40;;;;;;;21.89;60.38;99693.53;4403455;32;20253;-87
2023/06/21 02:33:28;;;;;;;8.80;6.35;;;;;;;21.82;60.37;99690.53;4406795;32;34363;-87
2023/06/21 02:35:53;;;;;;;10.55;6.40;;;;;;;21.96;60.38;99687.59;4401481;32;20130;-88
2023/06/21 02:38:19;;;;;;;9.73;6.90;;;;;;;21.88;60.37;99683.91;4418624;32;20112;-87
2023/06/21 02:40:45;;;;;;;10.77;6.72;;;;;;;21.98;60.38;99680.37;4393159;32;20442;-88
2023/06/21 02:43:10;;;;;;;7.55;5.90;;;;;;;22.02;60.38;99683.66;4405607;32;20097;-87
2023/06/21 02:45:36;;;;;;;9.68;6.62;;;;;;;22.08;60.38;99680.53;4405255;32;20116;-86
2023/06/21 02:48:03;;;;;;;8.77;6.12;;;;;;;22.13;60.39;99680.97;4390619;32;20165;-88
2023/06/21 02:50:29;;;;;;;17.52;7.22;;;;;;;22.01;60.38;99674.00;4414505;32;20120;-88
2023/06/21 02:52:54;;;;;;;8.02;5.93;;;;;;;22.05;60.39;99675.47;4405753;32;20098;-88
2023/06/21 02:55:20;;;;;;;9.38;6.55;;;;;;;22.13;60.39;99670.38;4402566;32;20086;-88
2023/06/21 02:57:45;;;;;;;9.27;6.97;;;;;;;22.05;60.38;99678.12;4392666;32;20134;-88
2023/06/21 03:00:27;;;;;;;8.65;6.60;;;;;;;21.96;60.38;99687.59;4400532;32;20629;-88
2023/06/21 03:02:53;;;;;;;9.60;6.40;;;;;;;21.95;60.38;99687.72;4411240;32;20124;-87
2023/06/21 03:05:18;;;;;;;10.25;7.20;;;;;;;22.10;60.39;99675.09;4394711;32;20134;-87
2023/06/21 03:07:44;;;;;;;8.32;6.75;;;;;;;22.14;60.39;99676.53;4381683;32;20418;-88
2023/06/21 03:10:13;;;;;;;11.57;7.12;;;;;;;22.15;60.39;99668.44;4392270;32;27434;-86
2023/06/21 03:12:42;;;;;;;9.63;7.43;;;;;;;22.06;60.39;99674.50;4403186;32;20125;-87
2023/06/21 03:15:08;;;;;;;17.33;9.23;;;;;;;22.23;60.39;99684.56;4405682;32;20078;-88
2023/06/21 03:17:35;;;;;;;10.45;6.57;;;;;;;22.23;60.39;99681.91;4404783;32;20144;-89
2023/06/21 03:20:01;;;;;;;13.25;8.20;;;;;;;22.11;60.39;99682.06;4405585;32;20494;-88
2023/06/21 03:22:27;;;;;;;10.45;6.22;;;;;;;22.11;60.39;99684.72;4404306;32;20102;-86
2023/06/21 03:24:53;;;;;;;12.68;7.70;;;;;;;22.24;60.39;99683.63;4407873;32;20102;-86
2023/06/21 03:27:19;;;;;;;14.27;7.28;;;;;;;22.17;60.38;99687.72;4394929;32;20143;-87
2023/06/21 03:29:44;;;;;;;14.90;7.25;;;;;;;22.27;60.40;99683.38;4392773;32;20463;-87
2023/06/21 03:32:10;;;;;;;12.23;6.97;;;;;;;22.27;60.40;99677.22;4403955;32;20173;-88
2023/06/21 03:34:35;;;;;;;16.27;10.05;;;;;;;22.35;60.41;99680.94;4405355;32;20183;-87
2023/06/21 03:37:00;;;;;;;10.85;7.55;;;;;;;22.42;60.41;99675.94;4418072;32;20094;-87
2023/06/21 03:39:26;;;;;;;9.75;6.53;;;;;;;22.42;60.41;99673.31;4421595;32;20487;-87
2023/06/21 03:41:51;;;;;;;10.70;7.50;;;;;;;22.45;60.40;99675.69;4405942;32;20147;-88
2023/06/21 03:44:17;;;;;;;9.52;6.60;;;;;;;22.76;60.42;99673.19;4392662;32;20106;-88
2023/06/21 03:46:42;;;;;;;14.82;7.62;;;;;;;22.67;60.42;99670.28;4417598;32;20125;-88
2023/06/21 03:49:08;;;;;;;9.95;7.35;;;;;;;22.64;60.42;99672.38;4421692;32;20128;-88
2023/06/21 03:51:33;;;;;;;10.88;6.97;;;;;;;22.61;60.41;99670.81;4421182;32;20086;-87
2023/06/21 03:53:59;;;;;;;9.45;6.93;;;;;;;22.64;60.42;99678.53;4421295;32;20151;-87
2023/06/21 03:56:24;;;;;;;14.13;7.05;;;;;;;22.63;60.41;99673.34;4394304;32;24275;-86
2023/06/21 03:58:50;;;;;;;9.68;7.05;;;;;;;22.74;60.43;99675.13;4421580;32;20383;-87
2023/06/21 04:01:16;;;;;;;11.75;7.85;;;;;;;22.86;60.43;99679.41;4405433;32;20194;-87
2023/06/21 04:03:41;;;;;;;14.10;7.18;;;;;;;22.96;60.44;99675.88;4394888;32;20098;-87
2023/06/21 04:06:07;;;;;;;11.80;7.00;;;;;;;23.07;60.44;99672.28;4420754;32;20120;-87
2023/06/21 04:08:32;;;;;;;14.68;7.37;;;;;;;23.05;60.44;99673.41;4406649;32;28286;-87
2023/06/21 04:10:57;;;;;;;11.05;7.10;;;;;;;22.94;60.42;99676.94;4392578;32;20150;-86
2023/06/21 04:13:23;;;;;;;12.57;7.18;;;;;;;22.91;60.43;99682.50;4404463;32;27073;-86
2023/06/21 04:15:48;;;;;;;10.30;7.30;;;;;;;23.04;60.44;99695.63;4416894;32;20147;-86
2023/06/21 04:18:14;;;;;;;8.77;6.87;;;;;;;23.19;60.45;99692.50;4420524;32;30456;-86
2023/06/21 04:20:39;;;;;;;11.25;7.45;;;;;;;23.37;60.46;99690.06;4407414;32;20106;-86
2023/06/21 04:23:05;;;;;;;10.50;7.30;;;;;;;23.47;60.46;99701.59;4406033;32;34537;-86
2023/06/21 04:25:30;;;;;;;11.40;7.65;;;;;;;23.69;60.47;99710.41;4419156;32;20173;-87
2023/06/21 04:27:56;;;;;;;12.05;7.12;;;;;;;23.51;60.47;99715.47;4394023;32;20106;-86
2023/06/21 04:30:21;;;;;;;15.38;7.20;;;;;;;23.64;60.47;99717.91;4418457;32;32838;-87
2023/06/21 04:32:46;;;;;;;10.18;7.40;;;;;;;23.82;60.48;99724.28;4396988;32;20137;-87
2023/06/21 04:35:14;;;;;;;11.73;7.57;;;;;;;23.92;60.48;99721.69;4422873;32;25481;-87
2023/06/21 04:37:44;;;;;;;14.73;6.97;;;;;;;24.02;60.48;99739.34;4394269;32;20111;-88
2023/06/21 04:40:15;;;;;;;12.75;8.02;;;;;;;24.10;60.48;99730.69;4406267;32;20106;-87
2023/06/21 04:42:42;;;;;;;14.68;7.35;;;;;;;24.19;60.49;99741.37;4396796;32;20527;-87
2023/06/21 04:45:10;;;;;;;15.40;7.37;;;;;;;24.24;60.49;99738.28;4395029;32;20090;-87
2023/06/21 04:47:37;;;;;;;14.65;7.80;;;;;;;24.36;60.49;99739.03;4406599;32;20106;-87
2023/06/21 04:50:03;;;;;;;10.68;7.70;;;;;;;24.62;60.52;99742.87;4417121;32;20098;-88
2023/06/21 04:52:28;;;;;;;18.40;7.95;;;;;;;24.57;60.51;99731.78;4396617;32;20165;-87
2023/06/21 04:54:59;;;;;;;14.48;8.10;;;;;;;24.84;60.53;99728.44;4423105;32;20488;-87
2023/06/21 04:57:24;;;;;;;14.55;7.87;;;;;;;25.10;60.54;99718.09;4406922;32;20090;-87
2023/06/21 04:59:50;;;;;;;11.57;7.75;;;;;;;25.20;60.54;99721.56;4393448;32;20157;-87
2023/06/21 05:02:15;;;;;;;11.57;7.22;;;;;;;25.19;60.54;99719.06;4396385;32;20133;-87
2023/06/21 05:04:41;;;;;;;12.43;7.90;;;;;;;25.36;60.55;99713.84;4383007;32;20085;-87
2023/06/21 05:07:06;;;;;;;10.65;7.70;;;;;;;25.48;60.56;99711.81;4381167;32;20189;-88
2023/06/21 05:09:32;;;;;;;14.20;8.32;;;;;;;25.57;60.56;99716.28;4404812;32;20106;-87
2023/06/21 05:11:57;;;;;;;10.93;7.78;;;;;;;25.59;60.56;99708.16;4409259;32;20152;-87
2023/06/21 05:14:22;;;;;;;14.27;8.43;;;;;;;25.61;60.56;99699.03;4382292;32;23438;-87
2023/06/21 05:16:48;;;;;;;10.00;7.80;;;;;;;25.71;60.57;99696.34;4393668;32;20160;-88
2023/06/21 05:19:14;;;;;;;12.95;8.60;;;;;;;25.88;60.58;99698.22;4419652;32;20118;-88
2023/06/21 05:21:39;;;;;;;11.05;7.78;;;;;;;25.99;60.59;99700.69;4406384;32;20086;-88
2023/06/21 05:24:05;;;;;;;13.10;7.80;;;;;;;26.12;60.60;99712.84;4405600;32;20089;-88
2023/06/21 05:26:30;;;;;;;9.38;7.20;;;;;;;26.29;60.60;99710.22;4394065;32;20118;-88
2023/06/21 05:28:56;;;;;;;11.45;7.90;;;;;;;26.41;60.61;99710.84;4404836;32;30516;-88
2023/06/21 05:31:23;;;;;;;10.13;7.57;;;;;;;26.44;60.61;99713.22;4407933;32;26206;-88
2023/06/21 05:33:49;;;;;;;8.75;6.90;;;;;;;26.66;60.62;99719.09;4412782;32;20102;-88
2023/06/21 05:36:14;;;;;;;9.20;7.28;;;;;;;26.60;60.62;99715.22;4408984;32;20155;-89
2023/06/21 05:38:39;;;;;;;10.75;7.35;;;;;;;26.93;60.63;99708.31;4407131;32;21198;-88
2023/06/21 05:41:05;;;;;;;12.88;6.80;;;;;;;26.95;60.63;99702.81;4405681;32;30182;-88
2023/06/21 05:43:30;;;;;;;10.93;7.10;;;;;;;27.13;60.64;99709.00;4391886;32;28442;-88
2023/06/21 05:45:56;;;;;;;10.40;7.53;;;;;;;27.24;60.64;99707.94;4422568;32;20141;-87
2023/06/21 05:48:21;;;;;;;13.13;7.93;;;;;;;27.26;60.65;99705.94;4408411;32;20133;-88
2023/06/21 05:50:50;;;;;;;12.55;7.97;;;;;;;27.44;60.66;99706.69;4406009;32;20093;-86
2023/06/21 05:53:15;;;;;;;12.40;7.07;;;;;;;27.63;60.67;99701.16;4405131;32;20108;-87
2023/06/21 05:55:40;;;;;;;8.50;7.55;;;;;;;27.61;60.67;99711.16;4408736;32;20495;-88
2023/06/21 05:58:06;;;;;;;12.40;7.32;;;;;;;27.70;60.67;99706.75;4395898;32;20109;-88
2023/06/21 06:00:31;;;;;;;11.50;6.97;;;;;;;27.85;60.68;99715.81;4422679;32;20093;-89
2023/06/21 06:02:57;;;;;;;8.40;7.15;;;;;;;27.96;60.69;99715.53;4395964;32;20339;-88
2023/06/21 06:05:22;;;;;;;8.40;7.35;;;;;;;28.14;60.70;99720.78;4408581;32;20118;-88
2023/06/21 06:07:48;;;;;;;10.40;6.90;;;;;;;28.17;60.70;99717.78;4394266;32;32843;-88
2023/06/21 06:10:13;;;;;;;8.68;6.80;;;;;;;28.27;60.70;99712.31;4408458;32;20149;-88
2023/06/21 06:12:38;;;;;;;11.27;7.25;;;;;;;28.43;60.71;99715.88;4396022;32;20090;-89
2023/06/21 06:15:05;;;;;;;8.55;7.25;;;;;;;28.60;60.71;99708.69;4422795;32;20101;-88
2023/06/21 06:17:30;;;;;;;11.52;7.45;;;;;;;28.68;60.72;99713.25;4408771;32;20121;-88
2023/06/21 06:19:56;;;;;;;10.25;7.03;;;;;;;28.71;60.73;99713.75;4406515;32;20492;-88
2023/06/21 06:22:21;;;;;;;9.80;6.75;;;;;;;28.91;60.74;99711.63;4419396;32;20082;-89
2023/06/21 06:24:48;;;;;;;11.10;7.55;;;;;;;28.92;60.73;99699.88;4393653;32;20213;-89
2023/06/21 06:27:14;;;;;;;8.07;7.05;;;;;;;28.94;60.74;99694.34;4392216;32;20110;-88
2023/06/21 06:29:39;;;;;;;8.27;7.15;;;;;;;29.01;60.75;99698.88;4406059;32;20105;-89
2023/06/21 06:32:05;;;;;;;13.30;7.47;;;;;;;29.09;60.73;99692.66;4417098;32;20120;-89
2023/06/21 06:34:30;;;;;;;9.85;7.12;;;;;;;29.05;60.74;99691.31;4422837;32;20113;-88
2023/06/21 06:36:55;;;;;;;12.82;7.57;;;;;;;29.28;60.75;99692.28;4408747;32;20535;-88
2023/06/21 06:39:21;;;;;;;13.95;8.00;;;;;;;29.41;60.75;99693.63;4422785;32;20113;-89
2023/06/21 06:41:46;;;;;;;13.93;7.60;;;;;;;29.44;60.76;99693.28;4405623;32;20368;-89
2023/06/21 06:44:12;;;;;;;10.02;7.75;;;;;;;29.56;60.76;99694.59;4422670;32;20147;-89
2023/06/21 06:46:37;;;;;;;13.00;8.15;;;;;;;29.58;60.77;99695.28;4395245;32;20378;-89
2023/06/21 06:49:03;;;;;;;12.68;7.47;;;;;;;29.88;60.79;99697.19;4422568;32;20127;-89
2023/06/21 06:51:28;;;;;;;11.70;7.72;;;;;;;30.03;60.79;99708.03;4408449;32;20426;-88
2023/06/21 06:53:53;;;;;;;11.70;7.07;;;;;;;30.20;60.79;99708.78;4422024;32;25914;-89
2023/06/21 06:56:19;;;;;;;12.45;8.30;;;;;;;30.25;60.80;99704.56;4393247;32;20110;-90
2023/06/21 06:58:44;;;;;;;10.38;7.50;;;;;;;30.47;60.82;99702.91;4396375;32;20146;-90
2023/06/21 07:01:10;;;;;;;10.05;7.32;;;;;;;30.44;60.82;99703.28;4400792;32;20158;-89
2023/06/21 07:03:35;;;;;;;10.68;7.30;;;;;;;30.51;60.81;99700.69;4422424;32;20797;-88
2023/06/21 07:06:01;;;;;;;13.13;7.37;;;;;;;30.56;60.82;99701.03;4393293;32;20122;-89
2023/06/21 07:08:27;;;;;;;9.90;7.50;;;;;;;30.74;60.83;99704.25;4398171;32;20113;-89
2023/06/21 07:10:52;;;;;;;13.48;8.00;;;;;;;30.81;60.83;99707.91;4405799;32;20094;-89
2023/06/21 07:13:18;;;;;;;12.88;7.53;;;;;;;30.93;60.84;99708.31;4398236;32;20106;-88
2023/06/21 07:15:44;;;;;;;11.68;7.78;;;;;;;31.11;60.85;99708.81;4422855;32;20447;-87
2023/06/21 07:18:10;;;;;;;9.82;7.50;;;;;;;31.21;60.85;99705.91;4423098;32;20107;-86
2023/06/21 07:20:36;;;;;;;9.23;7.72;;;;;;;31.43;60.86;99705.00;4423062;32;20199;-85
2023/06/21 07:23:01;;;;;;;11.20;8.40;;;;;;;31.61;60.87;99711.87;4393615;32;20213;-86
2023/06/21 07:25:27;;;;;;;12.15;8.05;;;;;;;31.76;60.88;99702.00;4375275;32;34416;-87
2023/06/21 07:27:52;;;;;;;12.57;8.55;;;;;;;31.77;60.88;99697.44;4422506;32;20133;-85
2023/06/21 07:30:18;;;;;;;19.27;8.27;;;;;;;31.90;60.89;99692.22;4380924;32;20135;-84
2023/06/21 07:32:46;;;;;;;9.88;8.30;;;;;;;32.00;60.89;99690.06;4422739;32;20148;-85
2023/06/21 07:35:12;;;;;;;12.95;8.10;;;;;;;32.14;60.90;99697.28;4408741;32;20489;-85
2023/06/21 07:37:38;;;;;;;11.88;8.40;;;;;;;32.18;60.89;99689.63;4409288;32;20090;-85
2023/06/21 07:40:05;;;;;;;11.50;8.88;;;;;;;32.35;60.90;99691.13;4405947;32;20124;-84
2023/06/21 07:42:31;;;;;;;10.68;8.85;;;;;;;32.48;60.91;99687.75;4412273;32;20094;-84
2023/06/21 07:44:56;;;;;;;15.85;8.40;;;;;;;32.62;60.92;99679.56;4408168;32;28206;-84
2023/06/21 07:47:22;;;;;;;11.63;8.27;;;;;;;32.61;60.92;99683.31;4405740;32;20522;-84
2023/06/21 07:49:48;;;;;;;16.00;8.98;;;;;;;32.67;60.92;99681.72;4406336;32;20109;-83
2023/06/21 07:52:14;;;;;;;12.37;9.50;;;;;;;32.95;60.94;99666.44;4392873;32;20094;-84
2023/06/21 07:54:39;;;;;;;17.45;9.13;;;;;;;33.29;60.95;99654.00;4395583;32;20101;-82
2023/06/21 07:57:05;;;;;;;13.10;9.05;;;;;;;33.29;60.95;99656.69;4394446;32;20137;-84
2023/06/21 07:59:31;;;;;;;11.00;9.00;;;;;;;33.38;60.95;99658.25;4382703;32;20387;-84
2023/06/21 08:01:57;;;;;;;12.73;9.57;;;;;;;33.38;60.96;99668.22;4394488;32;20561;-84
2023/06/21 08:04:22;;;;;;;13.55;9.93;;;;;;;33.40;60.97;99680.47;4393853;32;32725;-83
2023/06/21 08:06:48;;;;;;;12.35;8.82;;;;;;;33.84;60.98;99687.38;4395065;32;20150;-84
2023/06/21 08:09:13;;;;;;;15.63;9.25;;;;;;;33.90;60.99;99683.88;4395100;32;30058;-84
2023/06/21 08:11:38;;;;;;;19.45;9.50;;;;;;;34.10;61.00;99684.78;4394642;32;26405;-84
2023/06/21 08:14:04;;;;;;;11.63;9.82;;;;;;;34.53;61.01;99686.34;4393943;32;32990;-84
2023/06/21 08:16:30;;;;;;;15.50;9.32;;;;;;;34.60;61.01;99693.47;4395097;32;22188;-84
2023/06/21 08:18:55;;;;;;;14.13;10.02;;;;;;;34.75;61.02;99696.78;4395657;32;20098;-83
2023/06/21 08:21:21;;;;;;;11.32;10.07;;;;;;;34.85;61.02;99690.19;4395165;32;20138;-84
2023/06/21 08:23:46;;;;;;;11.93;8.80;;;;;;;35.09;61.04;99684.16;4408271;32;20134;-84
2023/06/21 08:26:11;;;;;;;13.60;9.88;;;;;;;35.23;61.04;99696.59;4395719;32;20166;-84
2023/06/21 08:28:37;;;;;;;18.62;10.23;;;;;;;35.43;61.06;99699.31;4395625;32;20090;-85
2023/06/21 08:31:02;;;;;;;13.05;9.25;;;;;;;35.40;61.07;99699.72;4395528;32;20165;-85
2023/06/21 08:33:28;;;;;;;12.07;9.02;;;;;;;35.58;61.08;99705.31;4409464;32;20102;-85
2023/06/21 08:35:53;;;;;;;11.55;8.98;;;;;;;35.80;61.07;99705.06;4408159;32;20112;-87
2023/06/21 08:38:19;;;;;;;14.18;10.73;;;;;;;35.84;61.08;99711.72;4409366;32;20121;-87
2023/06/21 08:40:45;;;;;;;15.27;9.77;;;;;;;35.78;61.08;99709.84;4407806;32;20129;-85
2023/06/21 08:43:11;;;;;;;9.65;8.65;;;;;;;35.62;61.07;99709.25;4395221;32;20150;-86
2023/06/21 08:45:36;;;;;;;14.68;9.80;;;;;;;35.79;61.08;99723.19;4382671;32;20102;-86
2023/06/21 08:48:02;;;;;;;12.90;8.75;;;;;;;35.85;61.08;99716.09;4394656;32;32364;-86
2023/06/21 08:50:28;;;;;;;11.80;9.35;;;;;;;35.90;61.09;99714.41;4395125;32;20356;-85
2023/06/21 08:52:54;;;;;;;11.25;8.85;;;;;;;35.95;61.08;99722.72;4395466;32;20102;-85
2023/06/21 08:55:20;;;;;;;11.30;10.13;;;;;;;35.86;61.09;99725.91;4395343;32;20140;-86
2023/06/21 08:57:51;;;;;;;12.95;10.15;;;;;;;36.08;61.09;99726.44;4395274;32;20100;-85
2023/06/21 09:00:22;;;;;;;13.10;9.95;;;;;;;36.01;61.09;99731.06;4383406;32;20168;-86
2023/06/21 09:03:05;;;;;;;14.52;9.60;;;;;;;36.07;61.10;99732.91;4409366;32;20233;-85
2023/06/21 09:06:09;;;;;;;12.68;10.27;;;;;;;36.04;61.09;99731.47;4408768;32;20086;-85
2023/06/21 09:08:34;;;;;;;11.85;9.55;;;;;;;35.81;61.07;99731.94;4397431;32;20145;-85
2023/06/21 09:11:00;;;;;;;11.70;9.80;;;;;;;35.78;61.08;99729.66;4395213;32;20387;-84
2023/06/21 09:13:27;;;;;;;14.00;9.68;;;;;;;35.82;61.08;99739.00;4394703;32;20440;-85
2023/06/21 09:15:53;;;;;;;10.35;9.25;;;;;;;35.76;61.08;99739.88;4395572;32;20090;-85
2023/06/21 09:18:18;;;;;;;16.65;10.50;;;;;;;35.90;61.09;99736.09;4395378;32;20116;-86
2023/06/21 09:20:48;;;;;;;17.27;10.75;;;;;;;36.13;61.09;99730.16;4395129;32;20102;-86
2023/06/21 09:23:13;;;;;;;12.25;9.63;;;;;;;36.21;61.09;99735.34;4382835;32;20511;-86
2023/06/21 09:25:39;;;;;;;11.52;9.65;;;;;;;36.13;61.09;99729.31;4395094;32;20098;-86
2023/06/21 09:28:04;;;;;;;11.48;9.73;;;;;;;36.21;61.09;99726.37;4395155;32;20094;-86
2023/06/21 09:30:29;;;;;;;12.10;9.63;;;;;;;36.10;61.09;99738.72;4394444;32;21432;-86
2023/06/21 09:32:56;;;;;;;10.23;9.23;;;;;;;36.23;61.11;99737.84;4394479;32;23029;-86
2023/06/21 09:35:21;;;;;;;12.43;9.70;;;;;;;36.17;61.10;99736.81;4394912;32;20166;-86
2023/06/21 09:37:47;;;;;;;13.02;10.13;;;;;;;36.24;61.11;99732.22;4394541;32;20086;-86
2023/06/21 09:40:12;;;;;;;10.15;8.98;;;;;;;36.23;61.11;99733.25;4407426;32;20105;-85
2023/06/21 09:42:43;;;;;;;13.98;10.02;;;;;;;36.18;61.10;99740.34;4395149;32;20118;-86
2023/06/21 09:45:12;;;;;;;17.30;9.82;;;;;;;36.12;61.09;99742.03;4394908;32;20152;-86
2023/06/21 09:47:41;;;;;;;12.07;10.18;;;;;;;36.06;61.08;99742.09;4408884;32;20081;-86
2023/06/21 09:50:07;;;;;;;12.52;10.23;;;;;;;35.96;61.09;99750.66;4408867;32;20098;-85
2023/06/21 09:52:33;;;;;;;18.42;10.05;;;;;;;36.06;61.10;99761.88;4395107;32;20266;-86
2023/06/21 09:54:58;;;;;;;13.85;9.95;;;;;;;35.94;61.09;99761.69;4408983;32;20113;-86
2023/06/21 09:57:28;;;;;;;13.48;10.35;;;;;;;35.90;61.08;99765.03;4395123;32;20407;-86
2023/06/21 09:59:53;;;;;;;14.57;9.38;;;;;;;36.14;61.10;99756.22;4394933;32;20129;-86
2023/06/21 10:02:19;;;;;;;13.80;9.63;;;;;;;36.28;61.10;99757.00;4395143;32;20094;-86
2023/06/21 10:04:44;;;;;;;13.10;10.35;;;;;;;36.22;61.11;99750.56;4409137;32;20125;-85
2023/06/21 10:07:14;;;;;;;12.55;9.38;;;;;;;36.37;61.11;99739.44;4395070;32;20095;-86
2023/06/21 10:09:41;;;;;;;11.02;9.40;;;;;;;36.41;61.11;99747.97;4408859;32;20548;-85
2023/06/21 10:12:09;;;;;;;13.32;10.45;;;;;;;36.58;61.12;99749.13;4394818;32;20110;-85
2023/06/21 10:14:34;;;;;;;16.87;10.02;;;;;;;36.64;61.13;99742.84;4407559;32;20119;-86
2023/06/21 10:16:59;;;;;;;13.40;10.13;;;;;;;36.50;61.12;99752.13;4408701;32;20439;-85
2023/06/21 10:19:26;;;;;;;11.90;10.57;;;;;;;36.61;61.12;99748.69;4369633;32;20470;-85
2023/06/21 10:21:57;;;;;;;15.85;9.20;;;;;;;36.54;61.11;99753.34;4407586;32;20129;-85
2023/06/21 10:24:22;;;;;;;18.00;11.07;;;;;;;36.62;61.13;99753.06;4394618;32;20170;-85
2023/06/21 10:26:49;;;;;;;14.93;10.43;;;;;;;36.55;61.12;99749.56;4382128;32;20511;-85
2023/06/21 10:29:14;;;;;;;17.40;10.65;;;;;;;36.68;61.13;99744.09;4394924;32;20163;-85
2023/06/21 10:31:40;;;;;;;16.08;11.32;;;;;;;36.48;61.12;99746.09;4408116;32;20145;-85
2023/06/21 10:34:07;;;;;;;15.18;12.30;;;;;;;36.47;61.12;99747.13;4370011;32;20097;-85
2023/06/21 10:36:32;;;;;;;16.48;11.05;;;;;;;36.34;61.11;99752.62;4394054;32;31435;-85
2023/06/21 10:39:02;;;;;;;14.35;11.30;;;;;;;36.23;61.11;99763.06;4381328;32;34822;-85
2023/06/21 10:41:28;;;;;;;17.92;11.35;;;;;;;36.19;61.10;99761.81;4382664;32;20176;-83
2023/06/21 10:43:53;;;;;;;13.73;11.23;;;;;;;36.07;61.10;99758.13;4381819;32;20125;-85
2023/06/21 10:46:19;;;;;;;12.02;10.70;;;;;;;36.03;61.09;99762.31;4406901;32;20087;-86
2023/06/21 10:48:44;;;;;;;19.52;11.90;;;;;;;36.12;61.09;99760.19;4406985;32;20136;-86
2023/06/21 10:51:10;;;;;;;20.20;11.95;;;;;;;36.21;61.10;99751.63;4382055;32;20177;-86
2023/06/21 10:53:36;;;;;;;14.55;11.10;;;;;;;36.12;61.09;99761.00;4381796;32;20101;-85
2023/06/21 10:56:04;;;;;;;15.95;12.05;;;;;;;36.07;61.10;99762.72;4394579;32;20096;-85
2023/06/21 10:58:29;;;;;;;22.37;11.88;;;;;;;36.01;61.09;99758.97;4394735;32;20102;-85
2023/06/21 11:00:55;;;;;;;18.98;12.43;;;;;;;35.98;61.10;99764.84;4406897;32;20102;-86
2023/06/21 11:03:25;;;;;;;16.00;11.73;;;;;;;35.93;61.09;99761.91;4406257;32;34140;-86
2023/06/21 11:06:29;;;;;;;15.60;12.75;;;;;;;36.09;61.10;99764.16;4407021;32;20117;-86
2023/06/21 11:08:55;;;;;;;14.68;11.60;;;;;;;35.96;61.08;99756.06;4394606;32;20126;-86
2023/06/21 11:11:34;;;;;;;14.10;11.90;;;;;;;35.88;61.08;99759.84;4382007;32;20462;-86
2023/06/21 11:14:08;;;;;;;24.87;12.25;;;;;;;36.08;61.10;99759.78;4382646;32;20082;-86
2023/06/21 11:16:35;;;;;;;13.45;11.57;;;;;;;36.14;61.09;99752.66;4381420;32;20217;-86
2023/06/21 11:19:06;;;;;;;15.63;12.10;;;;;;;36.17;61.10;99755.78;4394552;32;20410;-86
2023/06/21 11:21:48;;;;;;;17.35;12.10;;;;;;;36.18;61.10;99751.19;4368530;32;20144;-86
2023/06/21 11:24:19;;;;;;;13.45;12.05;;;;;;;35.82;61.09;99749.00;4393922;32;20561;-86